sensor_id;sensor_type;location;lat;lon;timestamp;temperature;humidity
1103;DHT22;538;42.654;23.376;2022-08-01T00:01:35;19.90;20.30
1103;DHT22;538;42.654;23.376;2022-08-01T00:04:03;19.90;20.30
1103;DHT22;538;42.654;23.376;2022-08-01T00:06:32;19.90;20.30
1103;DHT22;538;42.654;23.376;2022-08-01T00:08:59;19.90;20.10
1103;DHT22;538;42.654;23.376;2022-08-01T00:11:26;19.90;20.00
1103;DHT22;538;42.654;23.376;2022-08-01T00:13:53;19.90;19.80
1103;DHT22;538;42.654;23.376;2022-08-01T00:16:21;19.90;19.40
1103;DHT22;538;42.654;23.376;2022-08-01T00:18:49;19.90;19.20
1103;DHT22;538;42.654;23.376;2022-08-01T00:21:16;19.90;19.20
1103;DHT22;538;42.654;23.376;2022-08-01T00:23:45;19.90;19.10
1103;DHT22;538;42.654;23.376;2022-08-01T00:26:12;19.90;18.90
1103;DHT22;538;42.654;23.376;2022-08-01T00:28:39;19.90;19.70
1103;DHT22;538;42.654;23.376;2022-08-01T00:31:06;19.90;19.80
1103;DHT22;538;42.654;23.376;2022-08-01T00:33:33;19.80;20.30
1103;DHT22;538;42.654;23.376;2022-08-01T00:36:00;19.70;22.00
1103;DHT22;538;42.654;23.376;2022-08-01T00:38:28;19.50;23.90
1103;DHT22;538;42.654;23.376;2022-08-01T00:40:59;19.40;25.70
1103;DHT22;538;42.654;23.376;2022-08-01T00:43:25;19.30;27.40
1103;DHT22;538;42.654;23.376;2022-08-01T00:45:52;19.20;28.50
1103;DHT22;538;42.654;23.376;2022-08-01T00:48:19;19.10;29.00
1103;DHT22;538;42.654;23.376;2022-08-01T00:50:47;19.00;30.10
1103;DHT22;538;42.654;23.376;2022-08-01T00:53:14;18.90;31.20
1103;DHT22;538;42.654;23.376;2022-08-01T00:55:41;18.80;33.60
1103;DHT22;538;42.654;23.376;2022-08-01T00:58:10;18.70;34.50
1103;DHT22;538;42.654;23.376;2022-08-01T01:00:37;18.40;37.60
1103;DHT22;538;42.654;23.376;2022-08-01T01:03:04;18.30;39.80
1103;DHT22;538;42.654;23.376;2022-08-01T01:05:36;18.20;39.40
1103;DHT22;538;42.654;23.376;2022-08-01T01:08:11;18.10;42.10
1103;DHT22;538;42.654;23.376;2022-08-01T01:10:43;18.00;41.40
1103;DHT22;538;42.654;23.376;2022-08-01T01:13:29;18.00;43.50
1103;DHT22;538;42.654;23.376;2022-08-01T01:16:03;17.90;44.40
1103;DHT22;538;42.654;23.376;2022-08-01T01:18:34;17.90;42.80
1103;DHT22;538;42.654;23.376;2022-08-01T01:23:54;17.90;38.00
1103;DHT22;538;42.654;23.376;2022-08-01T01:26:36;17.90;39.30
1103;DHT22;538;42.654;23.376;2022-08-01T01:29:11;17.90;42.20
1103;DHT22;538;42.654;23.376;2022-08-01T01:31:44;17.90;43.20
1103;DHT22;538;42.654;23.376;2022-08-01T01:34:14;17.80;44.40
1103;DHT22;538;42.654;23.376;2022-08-01T01:36:43;17.80;45.40
1103;DHT22;538;42.654;23.376;2022-08-01T01:39:11;17.70;46.10
1103;DHT22;538;42.654;23.376;2022-08-01T01:41:40;17.70;49.80
1103;DHT22;538;42.654;23.376;2022-08-01T01:44:10;17.70;48.40
1103;DHT22;538;42.654;23.376;2022-08-01T01:46:39;17.60;51.20
1103;DHT22;538;42.654;23.376;2022-08-01T01:49:08;17.70;51.80
1103;DHT22;538;42.654;23.376;2022-08-01T01:51:37;17.70;51.00
1103;DHT22;538;42.654;23.376;2022-08-01T01:54:05;17.70;51.40
1103;DHT22;538;42.654;23.376;2022-08-01T01:56:35;17.70;52.70
1103;DHT22;538;42.654;23.376;2022-08-01T01:59:16;17.80;47.00
1103;DHT22;538;42.654;23.376;2022-08-01T02:01:46;18.00;44.50
1103;DHT22;538;42.654;23.376;2022-08-01T02:04:14;18.00;44.60
1103;DHT22;538;42.654;23.376;2022-08-01T02:06:43;17.90;46.40
1103;DHT22;538;42.654;23.376;2022-08-01T02:09:14;17.90;45.70
1103;DHT22;538;42.654;23.376;2022-08-01T02:11:43;17.90;42.80
1103;DHT22;538;42.654;23.376;2022-08-01T02:14:11;17.80;35.10
1103;DHT22;538;42.654;23.376;2022-08-01T02:16:44;17.90;33.00
1103;DHT22;538;42.654;23.376;2022-08-01T02:19:11;17.90;30.40
1103;DHT22;538;42.654;23.376;2022-08-01T02:21:40;17.90;36.20
1103;DHT22;538;42.654;23.376;2022-08-01T02:24:13;18.00;33.80
1103;DHT22;538;42.654;23.376;2022-08-01T02:26:46;18.00;41.50
1103;DHT22;538;42.654;23.376;2022-08-01T02:29:18;17.90;43.30
1103;DHT22;538;42.654;23.376;2022-08-01T02:31:51;17.80;43.50
1103;DHT22;538;42.654;23.376;2022-08-01T02:34:21;17.70;44.30
1103;DHT22;538;42.654;23.376;2022-08-01T02:36:49;17.60;47.20
1103;DHT22;538;42.654;23.376;2022-08-01T02:39:20;17.40;50.50
1103;DHT22;538;42.654;23.376;2022-08-01T02:41:50;17.40;48.60
1103;DHT22;538;42.654;23.376;2022-08-01T02:44:24;17.50;45.10
1103;DHT22;538;42.654;23.376;2022-08-01T02:46:58;17.60;44.40
1103;DHT22;538;42.654;23.376;2022-08-01T02:49:30;17.70;41.90
1103;DHT22;538;42.654;23.376;2022-08-01T02:52:00;17.60;43.30
1103;DHT22;538;42.654;23.376;2022-08-01T02:54:29;17.60;44.60
1103;DHT22;538;42.654;23.376;2022-08-01T02:56:58;17.50;45.20
1103;DHT22;538;42.654;23.376;2022-08-01T02:59:27;17.50;43.10
1103;DHT22;538;42.654;23.376;2022-08-01T03:01:59;17.60;41.60
1103;DHT22;538;42.654;23.376;2022-08-01T03:04:27;17.50;45.00
1103;DHT22;538;42.654;23.376;2022-08-01T03:06:56;17.30;44.60
1103;DHT22;538;42.654;23.376;2022-08-01T03:09:26;17.20;47.30
1103;DHT22;538;42.654;23.376;2022-08-01T03:11:57;17.10;50.20
1103;DHT22;538;42.654;23.376;2022-08-01T03:14:25;17.00;52.80
1103;DHT22;538;42.654;23.376;2022-08-01T03:16:54;16.90;51.40
1103;DHT22;538;42.654;23.376;2022-08-01T03:19:24;17.00;49.40
1103;DHT22;538;42.654;23.376;2022-08-01T03:21:53;16.80;51.80
1103;DHT22;538;42.654;23.376;2022-08-01T03:24:22;16.70;52.60
1103;DHT22;538;42.654;23.376;2022-08-01T03:26:51;16.90;51.50
1103;DHT22;538;42.654;23.376;2022-08-01T03:29:21;16.80;52.60
1103;DHT22;538;42.654;23.376;2022-08-01T03:31:51;16.90;52.60
1103;DHT22;538;42.654;23.376;2022-08-01T03:34:18;16.90;53.10
1103;DHT22;538;42.654;23.376;2022-08-01T03:36:52;17.00;48.50
1103;DHT22;538;42.654;23.376;2022-08-01T03:39:22;17.00;48.30
1103;DHT22;538;42.654;23.376;2022-08-01T03:42:02;17.00;49.70
1103;DHT22;538;42.654;23.376;2022-08-01T03:44:33;17.00;47.80
1103;DHT22;538;42.654;23.376;2022-08-01T03:47:07;17.10;47.70
1103;DHT22;538;42.654;23.376;2022-08-01T03:49:38;17.20;45.90
1103;DHT22;538;42.654;23.376;2022-08-01T03:52:09;17.10;46.90
1103;DHT22;538;42.654;23.376;2022-08-01T03:54:40;17.00;49.90
1103;DHT22;538;42.654;23.376;2022-08-01T03:57:09;17.10;49.50
1103;DHT22;538;42.654;23.376;2022-08-01T03:59:37;17.00;51.50
1103;DHT22;538;42.654;23.376;2022-08-01T04:02:06;16.80;54.50
1103;DHT22;538;42.654;23.376;2022-08-01T04:04:34;16.70;56.50
1103;DHT22;538;42.654;23.376;2022-08-01T04:07:01;16.80;53.80
1103;DHT22;538;42.654;23.376;2022-08-01T04:09:34;16.80;52.60
1103;DHT22;538;42.654;23.376;2022-08-01T04:12:01;16.80;51.10
1103;DHT22;538;42.654;23.376;2022-08-01T04:14:28;16.50;54.10
1103;DHT22;538;42.654;23.376;2022-08-01T04:16:55;16.50;50.20
1103;DHT22;538;42.654;23.376;2022-08-01T04:19:23;16.60;43.30
1103;DHT22;538;42.654;23.376;2022-08-01T04:21:51;16.70;46.80
1103;DHT22;538;42.654;23.376;2022-08-01T04:24:19;16.70;45.80
1103;DHT22;538;42.654;23.376;2022-08-01T04:26:50;16.70;47.10
1103;DHT22;538;42.654;23.376;2022-08-01T04:29:21;16.80;45.20
1103;DHT22;538;42.654;23.376;2022-08-01T04:31:49;16.90;42.60
1103;DHT22;538;42.654;23.376;2022-08-01T04:34:20;16.90;41.40
1103;DHT22;538;42.654;23.376;2022-08-01T04:36:48;17.00;41.70
1103;DHT22;538;42.654;23.376;2022-08-01T04:39:18;17.10;37.80
1103;DHT22;538;42.654;23.376;2022-08-01T04:41:46;17.20;37.10
1103;DHT22;538;42.654;23.376;2022-08-01T04:44:15;17.30;38.30
1103;DHT22;538;42.654;23.376;2022-08-01T04:46:42;17.40;36.90
1103;DHT22;538;42.654;23.376;2022-08-01T04:49:11;17.50;37.90
1103;DHT22;538;42.654;23.376;2022-08-01T04:51:50;17.50;38.10
1103;DHT22;538;42.654;23.376;2022-08-01T04:54:18;17.60;37.70
1103;DHT22;538;42.654;23.376;2022-08-01T04:56:47;17.70;37.10
1103;DHT22;538;42.654;23.376;2022-08-01T04:59:15;17.80;36.60
1103;DHT22;538;42.654;23.376;2022-08-01T05:02:00;17.90;37.10
1103;DHT22;538;42.654;23.376;2022-08-01T05:04:27;17.90;37.60
1103;DHT22;538;42.654;23.376;2022-08-01T05:06:54;18.00;39.90
1103;DHT22;538;42.654;23.376;2022-08-01T05:09:21;18.00;39.40
1103;DHT22;538;42.654;23.376;2022-08-01T05:11:48;18.00;37.20
1103;DHT22;538;42.654;23.376;2022-08-01T05:14:16;18.10;35.80
1103;DHT22;538;42.654;23.376;2022-08-01T05:16:44;18.10;36.60
1103;DHT22;538;42.654;23.376;2022-08-01T05:19:11;18.20;35.40
1103;DHT22;538;42.654;23.376;2022-08-01T05:21:38;18.40;30.80
1103;DHT22;538;42.654;23.376;2022-08-01T05:24:06;18.50;28.90
1103;DHT22;538;42.654;23.376;2022-08-01T05:26:33;18.60;28.80
1103;DHT22;538;42.654;23.376;2022-08-01T05:29:00;18.80;27.40
1103;DHT22;538;42.654;23.376;2022-08-01T05:31:28;18.90;25.80
1103;DHT22;538;42.654;23.376;2022-08-01T05:33:56;19.10;26.30
1103;DHT22;538;42.654;23.376;2022-08-01T05:36:23;19.20;25.90
1103;DHT22;538;42.654;23.376;2022-08-01T05:38:50;19.30;24.60
1103;DHT22;538;42.654;23.376;2022-08-01T05:41:17;19.40;24.10
1103;DHT22;538;42.654;23.376;2022-08-01T05:43:44;19.50;21.80
1103;DHT22;538;42.654;23.376;2022-08-01T05:46:12;19.60;21.10
1103;DHT22;538;42.654;23.376;2022-08-01T05:48:40;19.70;22.00
1103;DHT22;538;42.654;23.376;2022-08-01T05:51:07;19.90;22.80
1103;DHT22;538;42.654;23.376;2022-08-01T05:53:34;20.00;21.40
1103;DHT22;538;42.654;23.376;2022-08-01T05:56:01;20.10;20.70
1103;DHT22;538;42.654;23.376;2022-08-01T05:58:28;20.20;20.50
1103;DHT22;538;42.654;23.376;2022-08-01T06:00:56;20.30;18.70
1103;DHT22;538;42.654;23.376;2022-08-01T06:03:23;20.40;18.40
1103;DHT22;538;42.654;23.376;2022-08-01T06:05:52;20.40;19.20
1103;DHT22;538;42.654;23.376;2022-08-01T06:08:19;20.40;17.40
1103;DHT22;538;42.654;23.376;2022-08-01T06:10:46;20.50;18.00
1103;DHT22;538;42.654;23.376;2022-08-01T06:13:13;20.50;17.30
1103;DHT22;538;42.654;23.376;2022-08-01T06:15:40;20.60;16.10
1103;DHT22;538;42.654;23.376;2022-08-01T06:18:08;20.60;16.00
1103;DHT22;538;42.654;23.376;2022-08-01T06:20:35;20.70;15.20
1103;DHT22;538;42.654;23.376;2022-08-01T06:23:03;20.80;14.90
1103;DHT22;538;42.654;23.376;2022-08-01T06:25:31;20.70;13.40
1103;DHT22;538;42.654;23.376;2022-08-01T06:27:59;20.80;13.30
1103;DHT22;538;42.654;23.376;2022-08-01T06:30:26;20.80;13.70
1103;DHT22;538;42.654;23.376;2022-08-01T06:32:53;20.80;13.20
1103;DHT22;538;42.654;23.376;2022-08-01T06:35:21;20.90;13.10
1103;DHT22;538;42.654;23.376;2022-08-01T06:37:48;20.90;13.10
1103;DHT22;538;42.654;23.376;2022-08-01T06:40:17;20.90;12.30
1103;DHT22;538;42.654;23.376;2022-08-01T06:42:44;20.90;13.10
1103;DHT22;538;42.654;23.376;2022-08-01T06:45:12;21.00;13.30
1103;DHT22;538;42.654;23.376;2022-08-01T06:47:41;21.10;13.50
1103;DHT22;538;42.654;23.376;2022-08-01T06:50:09;21.10;13.00
1103;DHT22;538;42.654;23.376;2022-08-01T06:52:36;21.20;13.30
1103;DHT22;538;42.654;23.376;2022-08-01T06:55:05;21.20;13.30
1103;DHT22;538;42.654;23.376;2022-08-01T06:57:33;21.20;12.70
1103;DHT22;538;42.654;23.376;2022-08-01T07:00:02;21.30;12.70
1103;DHT22;538;42.654;23.376;2022-08-01T07:02:31;21.30;12.60
1103;DHT22;538;42.654;23.376;2022-08-01T07:04:57;21.30;13.10
1103;DHT22;538;42.654;23.376;2022-08-01T07:07:25;21.40;12.90
1103;DHT22;538;42.654;23.376;2022-08-01T07:09:53;21.40;12.80
1103;DHT22;538;42.654;23.376;2022-08-01T07:12:20;21.50;12.80
1103;DHT22;538;42.654;23.376;2022-08-01T07:14:48;21.50;13.50
1103;DHT22;538;42.654;23.376;2022-08-01T07:17:15;21.60;13.40
1103;DHT22;538;42.654;23.376;2022-08-01T07:19:42;21.70;13.20
1103;DHT22;538;42.654;23.376;2022-08-01T07:22:09;21.70;12.60
1103;DHT22;538;42.654;23.376;2022-08-01T07:24:40;21.70;12.70
1103;DHT22;538;42.654;23.376;2022-08-01T07:27:07;21.70;12.80
1103;DHT22;538;42.654;23.376;2022-08-01T07:29:34;21.70;13.10
1103;DHT22;538;42.654;23.376;2022-08-01T07:32:03;21.80;12.70
1103;DHT22;538;42.654;23.376;2022-08-01T07:34:30;21.80;13.20
1103;DHT22;538;42.654;23.376;2022-08-01T07:36:57;21.80;13.30
1103;DHT22;538;42.654;23.376;2022-08-01T07:39:24;21.90;13.20
1103;DHT22;538;42.654;23.376;2022-08-01T07:41:52;21.90;13.30
1103;DHT22;538;42.654;23.376;2022-08-01T07:44:19;22.10;12.90
1103;DHT22;538;42.654;23.376;2022-08-01T07:46:46;22.20;13.00
1103;DHT22;538;42.654;23.376;2022-08-01T07:49:15;22.20;12.60
1103;DHT22;538;42.654;23.376;2022-08-01T07:51:42;22.40;12.50
1103;DHT22;538;42.654;23.376;2022-08-01T07:54:09;22.40;12.00
1103;DHT22;538;42.654;23.376;2022-08-01T07:56:36;22.40;11.00
1103;DHT22;538;42.654;23.376;2022-08-01T07:59:03;22.40;10.10
1103;DHT22;538;42.654;23.376;2022-08-01T08:01:30;22.40;10.90
1103;DHT22;538;42.654;23.376;2022-08-01T08:03:58;22.50;10.90
1103;DHT22;538;42.654;23.376;2022-08-01T08:06:26;22.50;11.20
1103;DHT22;538;42.654;23.376;2022-08-01T08:08:53;22.40;10.90
1103;DHT22;538;42.654;23.376;2022-08-01T08:11:20;22.50;12.00
1103;DHT22;538;42.654;23.376;2022-08-01T08:13:47;22.50;11.20
1103;DHT22;538;42.654;23.376;2022-08-01T08:16:15;22.50;11.00
1103;DHT22;538;42.654;23.376;2022-08-01T08:18:41;22.50;11.10
1103;DHT22;538;42.654;23.376;2022-08-01T08:21:09;22.50;11.80
1103;DHT22;538;42.654;23.376;2022-08-01T08:23:37;22.40;11.80
1103;DHT22;538;42.654;23.376;2022-08-01T08:26:22;22.50;11.60
1103;DHT22;538;42.654;23.376;2022-08-01T08:28:50;22.50;10.80
1103;DHT22;538;42.654;23.376;2022-08-01T08:31:17;22.60;10.40
1103;DHT22;538;42.654;23.376;2022-08-01T08:33:45;22.50;10.50
1103;DHT22;538;42.654;23.376;2022-08-01T08:36:13;22.50;10.60
1103;DHT22;538;42.654;23.376;2022-08-01T08:38:42;22.50;10.60
1103;DHT22;538;42.654;23.376;2022-08-01T08:41:09;22.50;10.90
1103;DHT22;538;42.654;23.376;2022-08-01T08:43:37;22.60;10.80
1103;DHT22;538;42.654;23.376;2022-08-01T08:46:05;22.60;10.90
1103;DHT22;538;42.654;23.376;2022-08-01T08:48:34;22.90;10.90
1103;DHT22;538;42.654;23.376;2022-08-01T08:51:02;23.00;10.40
1103;DHT22;538;42.654;23.376;2022-08-01T08:53:31;23.20;11.30
1103;DHT22;538;42.654;23.376;2022-08-01T08:56:02;23.40;11.10
1103;DHT22;538;42.654;23.376;2022-08-01T08:58:31;23.70;10.40
1103;DHT22;538;42.654;23.376;2022-08-01T09:01:05;23.90;10.80
1103;DHT22;538;42.654;23.376;2022-08-01T09:03:32;23.70;6.90
1103;DHT22;538;42.654;23.376;2022-08-01T09:05:59;23.70;9.60
1103;DHT22;538;42.654;23.376;2022-08-01T09:08:26;23.80;8.40
1103;DHT22;538;42.654;23.376;2022-08-01T09:10:53;23.80;7.00
1103;DHT22;538;42.654;23.376;2022-08-01T09:13:22;23.70;8.60
1103;DHT22;538;42.654;23.376;2022-08-01T09:15:50;23.60;7.80
1103;DHT22;538;42.654;23.376;2022-08-01T09:18:30;23.60;7.40
1103;DHT22;538;42.654;23.376;2022-08-01T09:21:12;23.50;7.40
1103;DHT22;538;42.654;23.376;2022-08-01T09:23:41;23.50;6.70
1103;DHT22;538;42.654;23.376;2022-08-01T09:26:10;23.50;6.90
1103;DHT22;538;42.654;23.376;2022-08-01T09:28:39;23.50;6.90
1103;DHT22;538;42.654;23.376;2022-08-01T09:31:08;23.80;9.10
1103;DHT22;538;42.654;23.376;2022-08-01T09:33:52;23.90;8.10
1103;DHT22;538;42.654;23.376;2022-08-01T09:36:20;24.00;6.90
1103;DHT22;538;42.654;23.376;2022-08-01T09:38:48;24.10;6.40
1103;DHT22;538;42.654;23.376;2022-08-01T09:41:15;26.20;8.10
1103;DHT22;538;42.654;23.376;2022-08-01T09:43:49;24.40;7.60
1103;DHT22;538;42.654;23.376;2022-08-01T09:46:19;24.70;7.60
1103;DHT22;538;42.654;23.376;2022-08-01T09:48:57;25.10;8.30
1103;DHT22;538;42.654;23.376;2022-08-01T09:51:28;25.50;5.10
1103;DHT22;538;42.654;23.376;2022-08-01T09:53:56;26.50;4.30
1103;DHT22;538;42.654;23.376;2022-08-01T09:56:23;28.50;1.80
1103;DHT22;538;42.654;23.376;2022-08-01T09:58:53;30.00;1.00
1103;DHT22;538;42.654;23.376;2022-08-01T10:01:21;31.30;1.00
1103;DHT22;538;42.654;23.376;2022-08-01T10:04:04;32.20;1.00
1103;DHT22;538;42.654;23.376;2022-08-01T10:06:31;32.30;1.00
1103;DHT22;538;42.654;23.376;2022-08-01T10:08:58;32.20;1.00
1103;DHT22;538;42.654;23.376;2022-08-01T10:11:26;32.40;1.00
1103;DHT22;538;42.654;23.376;2022-08-01T10:13:58;32.30;1.00
1103;DHT22;538;42.654;23.376;2022-08-01T10:16:27;32.90;1.00
1103;DHT22;538;42.654;23.376;2022-08-01T10:18:55;33.30;1.00
1103;DHT22;538;42.654;23.376;2022-08-01T10:21:23;33.70;1.00
1103;DHT22;538;42.654;23.376;2022-08-01T10:23:54;33.40;1.00
1103;DHT22;538;42.654;23.376;2022-08-01T10:26:22;33.70;1.00
1103;DHT22;538;42.654;23.376;2022-08-01T10:28:53;34.50;1.00
1103;DHT22;538;42.654;23.376;2022-08-01T10:31:22;34.20;1.00
1103;DHT22;538;42.654;23.376;2022-08-01T10:33:50;34.10;1.00
1103;DHT22;538;42.654;23.376;2022-08-01T10:36:19;34.80;1.00
1103;DHT22;538;42.654;23.376;2022-08-01T10:38:47;34.80;1.00
1103;DHT22;538;42.654;23.376;2022-08-01T10:41:14;34.90;1.00
1103;DHT22;538;42.654;23.376;2022-08-01T10:43:42;34.90;1.00
1103;DHT22;538;42.654;23.376;2022-08-01T10:46:10;34.90;1.00
1103;DHT22;538;42.654;23.376;2022-08-01T10:48:44;33.30;1.00
1103;DHT22;538;42.654;23.376;2022-08-01T10:51:14;32.70;1.00
1103;DHT22;538;42.654;23.376;2022-08-01T10:53:46;31.90;1.00
1103;DHT22;538;42.654;23.376;2022-08-01T10:56:14;32.00;1.00
1103;DHT22;538;42.654;23.376;2022-08-01T10:58:43;32.80;1.00
1103;DHT22;538;42.654;23.376;2022-08-01T11:01:22;33.80;1.00
1103;DHT22;538;42.654;23.376;2022-08-01T11:04:05;33.50;1.00
1103;DHT22;538;42.654;23.376;2022-08-01T11:06:54;33.70;1.00
1103;DHT22;538;42.654;23.376;2022-08-01T11:09:25;34.50;1.00
1103;DHT22;538;42.654;23.376;2022-08-01T11:12:02;34.80;1.00
1103;DHT22;538;42.654;23.376;2022-08-01T11:14:31;33.80;1.00
1103;DHT22;538;42.654;23.376;2022-08-01T11:17:29;34.40;1.00
1103;DHT22;538;42.654;23.376;2022-08-01T11:20:09;34.60;1.00
1103;DHT22;538;42.654;23.376;2022-08-01T11:26:14;33.40;1.00
1103;DHT22;538;42.654;23.376;2022-08-01T11:28:44;33.80;1.00
1103;DHT22;538;42.654;23.376;2022-08-01T11:31:29;34.60;1.00
1103;DHT22;538;42.654;23.376;2022-08-01T11:33:56;34.70;1.00
1103;DHT22;538;42.654;23.376;2022-08-01T11:36:25;35.30;1.00
1103;DHT22;538;42.654;23.376;2022-08-01T11:39:22;34.90;1.00
1103;DHT22;538;42.654;23.376;2022-08-01T11:41:49;35.60;1.00
1103;DHT22;538;42.654;23.376;2022-08-01T11:44:20;35.40;1.00
1103;DHT22;538;42.654;23.376;2022-08-01T11:46:59;34.90;1.00
1103;DHT22;538;42.654;23.376;2022-08-01T11:49:48;34.90;1.00
1103;DHT22;538;42.654;23.376;2022-08-01T11:52:26;34.70;1.00
1103;DHT22;538;42.654;23.376;2022-08-01T11:54:55;35.10;1.00
1103;DHT22;538;42.654;23.376;2022-08-01T11:57:24;34.70;1.00
1103;DHT22;538;42.654;23.376;2022-08-01T11:59:54;34.10;1.00
1103;DHT22;538;42.654;23.376;2022-08-01T12:02:23;33.80;1.00
1103;DHT22;538;42.654;23.376;2022-08-01T12:04:54;32.40;1.00
1103;DHT22;538;42.654;23.376;2022-08-01T12:07:22;32.20;1.00
1103;DHT22;538;42.654;23.376;2022-08-01T12:09:59;32.50;1.00
1103;DHT22;538;42.654;23.376;2022-08-01T12:12:27;33.10;1.00
1103;DHT22;538;42.654;23.376;2022-08-01T12:14:56;32.50;1.00
1103;DHT22;538;42.654;23.376;2022-08-01T12:17:31;31.00;1.00
1103;DHT22;538;42.654;23.376;2022-08-01T12:19:59;29.80;1.00
1103;DHT22;538;42.654;23.376;2022-08-01T12:22:26;29.20;1.00
1103;DHT22;538;42.654;23.376;2022-08-01T12:24:53;28.70;1.00
1103;DHT22;538;42.654;23.376;2022-08-01T12:27:27;28.40;1.00
1103;DHT22;538;42.654;23.376;2022-08-01T12:29:55;28.70;1.20
1103;DHT22;538;42.654;23.376;2022-08-01T12:32:24;29.00;1.00
1103;DHT22;538;42.654;23.376;2022-08-01T12:34:54;29.20;1.00
1103;DHT22;538;42.654;23.376;2022-08-01T12:37:22;29.40;1.00
1103;DHT22;538;42.654;23.376;2022-08-01T12:39:49;29.30;1.00
1103;DHT22;538;42.654;23.376;2022-08-01T12:42:16;29.00;1.00
1103;DHT22;538;42.654;23.376;2022-08-01T12:44:50;28.80;1.00
1103;DHT22;538;42.654;23.376;2022-08-01T12:47:18;28.50;1.00
1103;DHT22;538;42.654;23.376;2022-08-01T12:49:47;28.30;1.00
1103;DHT22;538;42.654;23.376;2022-08-01T12:52:14;28.50;1.10
1103;DHT22;538;42.654;23.376;2022-08-01T12:55:07;29.00;1.40
1103;DHT22;538;42.654;23.376;2022-08-01T12:57:35;29.20;1.00
1103;DHT22;538;42.654;23.376;2022-08-01T13:00:15;29.30;1.00
1103;DHT22;538;42.654;23.376;2022-08-01T13:02:43;29.40;1.00
1103;DHT22;538;42.654;23.376;2022-08-01T13:05:11;29.30;1.00
1103;DHT22;538;42.654;23.376;2022-08-01T13:07:43;29.30;1.00
1103;DHT22;538;42.654;23.376;2022-08-01T13:10:11;29.30;1.00
1103;DHT22;538;42.654;23.376;2022-08-01T13:12:40;29.20;1.00
1103;DHT22;538;42.654;23.376;2022-08-01T13:15:24;29.30;1.00
1103;DHT22;538;42.654;23.376;2022-08-01T13:17:53;29.30;1.00
1103;DHT22;538;42.654;23.376;2022-08-01T13:20:28;29.30;1.00
1103;DHT22;538;42.654;23.376;2022-08-01T13:23:10;29.00;1.00
1103;DHT22;538;42.654;23.376;2022-08-01T13:25:51;29.00;1.00
1103;DHT22;538;42.654;23.376;2022-08-01T13:28:20;29.00;1.00
1103;DHT22;538;42.654;23.376;2022-08-01T13:31:02;29.20;1.50
1103;DHT22;538;42.654;23.376;2022-08-01T13:33:41;29.40;1.00
1103;DHT22;538;42.654;23.376;2022-08-01T13:36:08;29.20;1.00
1103;DHT22;538;42.654;23.376;2022-08-01T13:38:36;29.30;1.00
1103;DHT22;538;42.654;23.376;2022-08-01T13:41:20;29.40;1.00
1103;DHT22;538;42.654;23.376;2022-08-01T13:43:47;29.70;1.00
1103;DHT22;538;42.654;23.376;2022-08-01T13:46:16;29.50;1.00
1103;DHT22;538;42.654;23.376;2022-08-01T13:48:43;28.10;1.00
1103;DHT22;538;42.654;23.376;2022-08-01T13:51:10;29.60;1.00
1103;DHT22;538;42.654;23.376;2022-08-01T13:53:38;29.80;1.00
1103;DHT22;538;42.654;23.376;2022-08-01T13:56:05;29.80;1.00
1103;DHT22;538;42.654;23.376;2022-08-01T13:58:35;29.80;1.00
1103;DHT22;538;42.654;23.376;2022-08-01T14:01:02;29.70;1.00
1103;DHT22;538;42.654;23.376;2022-08-01T14:03:31;29.70;1.00
1103;DHT22;538;42.654;23.376;2022-08-01T14:05:58;29.70;1.00
1103;DHT22;538;42.654;23.376;2022-08-01T14:08:25;29.80;1.00
1103;DHT22;538;42.654;23.376;2022-08-01T14:10:52;29.60;1.00
1103;DHT22;538;42.654;23.376;2022-08-01T14:13:22;29.70;1.00
1103;DHT22;538;42.654;23.376;2022-08-01T14:15:50;29.90;1.00
1103;DHT22;538;42.654;23.376;2022-08-01T14:18:17;30.00;1.00
1103;DHT22;538;42.654;23.376;2022-08-01T14:20:46;30.20;1.20
1103;DHT22;538;42.654;23.376;2022-08-01T14:23:13;30.30;1.00
1103;DHT22;538;42.654;23.376;2022-08-01T14:25:41;30.50;1.00
1103;DHT22;538;42.654;23.376;2022-08-01T14:28:08;30.40;1.00
1103;DHT22;538;42.654;23.376;2022-08-01T14:30:36;30.30;1.00
1103;DHT22;538;42.654;23.376;2022-08-01T14:33:03;30.10;1.00
1103;DHT22;538;42.654;23.376;2022-08-01T14:35:30;30.00;1.00
1103;DHT22;538;42.654;23.376;2022-08-01T14:38:00;30.10;1.00
1103;DHT22;538;42.654;23.376;2022-08-01T14:40:28;30.20;1.10
1103;DHT22;538;42.654;23.376;2022-08-01T14:42:54;30.20;1.00
1103;DHT22;538;42.654;23.376;2022-08-01T14:45:22;30.20;1.00
1103;DHT22;538;42.654;23.376;2022-08-01T14:47:49;30.00;1.00
1103;DHT22;538;42.654;23.376;2022-08-01T14:50:16;29.60;1.00
1103;DHT22;538;42.654;23.376;2022-08-01T14:52:44;29.10;1.00
1103;DHT22;538;42.654;23.376;2022-08-01T14:55:13;28.50;1.00
1103;DHT22;538;42.654;23.376;2022-08-01T14:57:40;28.10;1.00
1103;DHT22;538;42.654;23.376;2022-08-01T15:00:09;27.70;1.40
1103;DHT22;538;42.654;23.376;2022-08-01T15:02:37;27.50;1.80
1103;DHT22;538;42.654;23.376;2022-08-01T15:05:05;27.20;2.30
1103;DHT22;538;42.654;23.376;2022-08-01T15:07:32;27.10;2.70
1103;DHT22;538;42.654;23.376;2022-08-01T15:09:59;26.80;2.80
1103;DHT22;538;42.654;23.376;2022-08-01T15:12:28;26.80;3.20
1103;DHT22;538;42.654;23.376;2022-08-01T15:14:55;26.90;3.00
1103;DHT22;538;42.654;23.376;2022-08-01T15:17:24;27.00;3.00
1103;DHT22;538;42.654;23.376;2022-08-01T15:19:56;26.90;2.80
1103;DHT22;538;42.654;23.376;2022-08-01T15:22:26;26.80;3.10
1103;DHT22;538;42.654;23.376;2022-08-01T15:24:55;26.90;3.30
1103;DHT22;538;42.654;23.376;2022-08-01T15:27:22;27.10;3.20
1103;DHT22;538;42.654;23.376;2022-08-01T15:29:51;27.10;2.90
1103;DHT22;538;42.654;23.376;2022-08-01T15:32:18;27.10;3.60
1103;DHT22;538;42.654;23.376;2022-08-01T15:34:45;27.10;3.40
1103;DHT22;538;42.654;23.376;2022-08-01T15:37:12;27.20;3.00
1103;DHT22;538;42.654;23.376;2022-08-01T15:39:40;27.50;2.50
1103;DHT22;538;42.654;23.376;2022-08-01T15:42:09;27.40;2.50
1103;DHT22;538;42.654;23.376;2022-08-01T15:44:37;27.30;2.80
1103;DHT22;538;42.654;23.376;2022-08-01T15:47:06;27.10;3.10
1103;DHT22;538;42.654;23.376;2022-08-01T15:49:33;27.00;3.50
1103;DHT22;538;42.654;23.376;2022-08-01T15:52:01;27.10;4.30
1103;DHT22;538;42.654;23.376;2022-08-01T15:54:28;27.10;4.60
1103;DHT22;538;42.654;23.376;2022-08-01T15:56:55;27.00;3.10
1103;DHT22;538;42.654;23.376;2022-08-01T15:59:23;26.90;3.40
1103;DHT22;538;42.654;23.376;2022-08-01T16:01:50;26.80;3.70
1103;DHT22;538;42.654;23.376;2022-08-01T16:04:19;26.70;4.30
1103;DHT22;538;42.654;23.376;2022-08-01T16:06:46;26.60;4.00
1103;DHT22;538;42.654;23.376;2022-08-01T16:09:13;26.50;3.50
1103;DHT22;538;42.654;23.376;2022-08-01T16:11:40;26.50;3.60
1103;DHT22;538;42.654;23.376;2022-08-01T16:14:07;26.40;3.60
1103;DHT22;538;42.654;23.376;2022-08-01T16:16:34;26.30;3.60
1103;DHT22;538;42.654;23.376;2022-08-01T16:19:01;26.30;3.50
1103;DHT22;538;42.654;23.376;2022-08-01T16:21:31;26.20;3.90
1103;DHT22;538;42.654;23.376;2022-08-01T16:23:58;26.10;3.60
1103;DHT22;538;42.654;23.376;2022-08-01T16:26:25;26.00;3.70
1103;DHT22;538;42.654;23.376;2022-08-01T16:28:52;26.00;3.70
1103;DHT22;538;42.654;23.376;2022-08-01T16:31:19;25.90;3.70